KHPN/HPN METAR and TAF weather

Enter ICAO airport designator
Station Type Date Time Source
KHPN METAR 2020/12/01 20:56 UTC NOAA

KHPN 012056Z 24009G19KT 10SM BKN032 BKN040 06/M01 A2959 RMK AO2 SLP023 T00611006 53031


Station Type Date Time Source
KHPN Decoded METAR 2020/12/01 20:56 UTC NOAA

WHITE PLAINS WESTCHESTER, NY, United States (KHPN) 41-04N 073-42W 121M
Dec 01, 2020 - 03:56 PM EST / 2020.12.01 2056 UTC
Wind: from the WSW (240 degrees) at 10 MPH (9 KT) gusting to 22 MPH (19 KT):0
Visibility: 10 mile(s):0
Sky conditions: mostly cloudy
Temperature: 43.0 F (6.1 C)
Dew Point: 30.9 F (-0.6 C)
Relative Humidity: 62%
Pressure (altimeter): 29.59 in. Hg (1002 hPa)
Pressure tendency: 0.09 inches (3.1 hPa) higher than three hours ago
ob: KHPN 012056Z 24009G19KT 10SM BKN032 BKN040 06/M01 A2959 RMK AO2 SLP023 T00611006 53031
cycle: 21

Station Type Date Time Source
KHPN TAF 2020/12/01 21:33 UTC NOAA

KHPN 012031Z 0121/0218 22014G22KT P6SM BKN050
FM020300 23008KT P6SM BKN050
FM021100 25008KT P6SM BKN050
FM021600 25010G19KT P6SM SCT060
AMD NOT SKED

Example: see airport list